Time;durP1;ratioP1;P1;durP2;ratioP2;P2;SDS_P1;SDS_P2;PMS_P1;PMS_P2;Temp;Humidity;BMP_temperature;BMP_pressure;BME280_temperature;BME280_humidity;BME280_pressure;Samples;Min_cycle;Max_cycle;Signal;HPM_P1;HPM_P2
2022/05/02 00:00:20;;;;;;;7.03;5.50;;;10.20;99.90;;;-141.84;62.37;17777.94;5050358;28;20233;-59
2022/05/02 00:02:49;;;;;;;6.40;5.63;;;10.10;99.90;;;-141.84;61.72;17792.16;5059246;28;20185;-57
2022/05/02 00:05:17;;;;;;;9.00;5.63;;;10.10;99.90;;;-141.84;62.31;17755.59;5070748;28;20220;-58
2022/05/02 00:07:46;;;;;;;6.03;5.20;;;10.10;99.90;;;-141.84;62.65;17794.19;5052895;28;20264;-58
2022/05/02 00:10:15;;;;;;;8.63;5.73;;;10.10;99.90;;;-141.84;62.82;17723.09;5050934;28;20259;-59
2022/05/02 00:12:43;;;;;;;7.07;5.50;;;10.00;99.90;;;-141.84;62.62;17775.91;5050904;28;20226;-59
2022/05/02 00:15:12;;;;;;;7.43;5.20;;;10.00;99.90;;;-141.84;62.03;17773.88;5050597;28;20219;-58
2022/05/02 00:17:57;;;;;;;7.70;5.60;;;10.10;99.90;;;-141.84;61.30;17790.13;5051052;28;20237;-57
2022/05/02 00:20:28;;;;;;;7.77;5.47;;;10.20;99.90;;;-141.84;62.22;17753.56;5051047;28;20251;-59
2022/05/02 00:22:59;;;;;;;5.90;5.10;;;10.10;99.90;;;-141.84;62.34;17788.09;5050636;28;20311;-58
2022/05/02 00:25:29;;;;;;;5.70;5.20;;;10.10;99.90;;;-141.84;62.94;17755.59;5050401;28;20312;-57
2022/05/02 00:27:57;;;;;;;8.57;5.47;;;10.10;99.90;;;-141.84;63.91;17727.16;5050493;28;20275;-57
2022/05/02 00:30:27;;;;;;;6.57;5.43;;;10.00;99.90;;;-141.84;64.64;17710.91;5050622;28;20700;-57
2022/05/02 00:32:58;;;;;;;6.13;4.90;;;9.90;99.90;;;-141.84;64.66;17704.81;5050213;28;20201;-57
2022/05/02 00:35:27;;;;;;;8.17;5.30;;;9.80;99.90;;;-141.84;65.54;17690.59;5051142;28;20196;-61
2022/05/02 00:37:55;;;;;;;5.30;4.80;;;9.70;99.90;;;-141.84;66.04;17733.25;5050026;28;20329;-59
2022/05/02 00:40:24;;;;;;;6.73;5.53;;;9.70;99.90;;;-141.84;64.67;17712.94;5050410;28;20221;-58
2022/05/02 00:42:52;;;;;;;8.30;5.73;;;9.70;99.90;;;-141.84;64.81;17737.31;5050095;28;20269;-60
2022/05/02 00:45:21;;;;;;;7.43;5.50;;;9.70;99.90;;;-141.84;63.35;17757.63;5050152;28;20223;-57
2022/05/02 00:47:52;;;;;;;5.77;5.17;;;9.80;99.90;;;-141.84;63.75;17747.47;5050762;28;20293;-56
2022/05/02 00:50:34;;;;;;;6.10;5.20;;;9.80;99.90;;;-141.84;63.85;17737.31;5050586;28;20221;-58
2022/05/02 00:53:04;;;;;;;6.27;4.97;;;9.90;99.90;;;-141.84;63.54;17731.22;5049878;28;20225;-59
2022/05/02 00:55:33;;;;;;;5.93;5.37;;;9.90;99.90;;;-141.84;63.45;17733.25;5049805;28;20364;-56
2022/05/02 00:58:03;;;;;;;6.97;5.30;;;9.90;99.90;;;-141.84;63.13;17749.50;5049624;28;20312;-57
2022/05/02 01:00:33;;;;;;;7.13;5.20;;;10.00;99.90;;;-141.84;63.82;17717.00;5050227;28;20304;-58
2022/05/02 01:03:02;;;;;;;5.97;5.40;;;9.90;99.90;;;-141.84;63.73;17749.50;5059325;28;20279;-56
2022/05/02 01:05:36;;;;;;;6.77;5.30;;;9.90;99.90;;;-141.84;64.28;17702.78;5070495;28;20205;-57
2022/05/02 01:08:05;;;;;;;8.27;5.50;;;9.80;99.90;;;-141.84;63.94;17733.25;5029595;28;20226;-57
2022/05/02 01:10:34;;;;;;;5.60;5.10;;;9.90;99.90;;;-141.84;65.38;17721.06;5030007;28;20229;-58
2022/05/02 01:13:02;;;;;;;6.00;5.37;;;9.70;99.90;;;-141.84;65.98;17710.91;5029698;28;20245;-57
2022/05/02 01:15:30;;;;;;;6.77;5.40;;;9.70;99.90;;;-141.84;65.63;17723.09;5029498;28;20311;-56
2022/05/02 01:17:58;;;;;;;5.80;5.20;;;9.60;99.90;;;-141.84;65.67;17708.88;5029668;28;20246;-56
2022/05/02 01:20:28;;;;;;;8.03;5.37;;;9.60;99.90;;;-141.84;66.44;17710.91;5036607;28;20212;-59
2022/05/02 01:22:55;;;;;;;9.13;4.90;;;9.60;99.90;;;-141.84;66.63;17674.34;5049312;28;20237;-57
2022/05/02 01:25:24;;;;;;;6.53;5.27;;;9.50;99.90;;;-141.84;66.72;17684.50;5049535;28;20232;-56
2022/05/02 01:27:51;;;;;;;6.37;5.60;;;9.50;99.90;;;-141.84;66.21;17678.41;5049490;28;20934;-59
2022/05/02 01:30:20;;;;;;;9.77;5.07;;;9.50;99.90;;;-141.84;65.96;17725.13;5049735;28;20221;-55
2022/05/02 01:32:47;;;;;;;6.37;5.10;;;9.50;99.90;;;-141.84;65.76;17694.66;5049723;28;20292;-57
2022/05/02 01:35:15;;;;;;;5.80;5.20;;;9.60;99.90;;;-141.84;65.72;17694.66;5049608;28;20599;-60
2022/05/02 01:37:45;;;;;;;8.87;5.77;;;9.60;99.90;;;-141.84;65.82;17725.13;5049081;28;20592;-58
2022/05/02 01:40:13;;;;;;;6.20;5.60;;;9.60;99.90;;;-141.84;64.99;17723.09;5049614;28;20308;-58
2022/05/02 01:42:41;;;;;;;6.27;5.27;;;9.60;99.90;;;-141.84;64.96;17700.75;5049420;28;20236;-57
2022/05/02 01:45:10;;;;;;;7.03;5.50;;;9.70;99.90;;;-141.84;64.57;17690.59;5049304;28;20581;-59
2022/05/02 01:47:38;;;;;;;7.03;5.70;;;9.70;99.90;;;-141.84;65.48;17656.06;5049604;28;20276;-59
2022/05/02 01:50:06;;;;;;;6.93;6.00;;;9.70;99.90;;;-141.84;65.11;17708.88;5049344;28;20304;-57
2022/05/02 01:52:34;;;;;;;6.47;5.53;;;9.60;99.90;;;-141.84;65.55;17694.66;5049090;28;20280;-55
2022/05/02 01:55:04;;;;;;;7.63;5.83;;;9.60;99.90;;;-141.84;65.40;17680.44;5049109;28;20792;-60
2022/05/02 01:57:32;;;;;;;6.10;5.50;;;9.50;99.90;;;-141.84;64.65;17719.03;5049204;28;20316;-61
2022/05/02 02:00:00;;;;;;;7.00;5.67;;;9.60;99.90;;;-141.84;64.96;17708.88;5049678;28;20309;-59
2022/05/02 02:02:28;;;;;;;9.53;5.90;;;9.60;99.90;;;-141.84;64.78;17708.88;5054078;28;20213;-60
2022/05/02 02:07:42;;;;;;;7.20;5.87;;;9.60;99.90;;;-141.84;65.67;17686.53;5050845;28;20636;-61
2022/05/02 02:10:11;;;;;;;8.63;6.27;;;9.50;99.90;;;-141.84;65.47;17712.94;5048725;28;20317;-62
2022/05/02 02:12:39;;;;;;;7.07;5.60;;;9.50;99.90;;;-141.84;66.12;17688.56;5048576;28;20225;-59
2022/05/02 02:15:14;;;;;;;6.67;5.73;;;9.50;99.90;;;-141.84;66.18;17688.56;5048741;28;20209;-60
2022/05/02 02:17:42;;;;;;;7.33;6.03;;;9.40;99.90;;;-141.84;66.77;17676.38;5049386;28;20224;-60
2022/05/02 02:20:13;;;;;;;8.83;6.20;;;9.30;99.90;;;-141.84;67.63;17676.38;5048736;28;20234;-60
2022/05/02 02:22:41;;;;;;;7.83;6.73;;;9.20;99.90;;;-141.84;68.10;17623.56;5049245;28;20662;-59
2022/05/02 02:25:11;;;;;;;8.37;6.27;;;9.10;99.90;;;-141.84;68.11;17645.91;5045772;28;20228;-60
2022/05/02 02:27:39;;;;;;;7.50;6.77;;;9.10;99.90;;;-141.84;68.27;17617.47;5038336;28;20320;-59
2022/05/02 02:30:09;;;;;;;8.93;6.60;;;9.10;99.90;;;-141.84;69.01;17597.16;5052446;28;20194;-59
2022/05/02 02:32:37;;;;;;;7.73;6.33;;;9.10;99.90;;;-141.84;69.03;17613.41;5058689;28;20404;-60
2022/05/02 02:35:07;;;;;;;8.10;6.57;;;9.00;99.90;;;-141.84;69.80;17578.88;5072159;28;20728;-60
2022/05/02 02:37:35;;;;;;;7.63;6.23;;;8.90;99.90;;;-141.84;70.29;17595.13;5072307;28;20253;-60
2022/05/02 02:40:04;;;;;;;7.07;6.37;;;8.90;99.90;;;-141.84;70.71;17580.91;5072081;28;20572;-59
2022/05/02 02:42:33;;;;;;;7.50;6.70;;;8.90;99.90;;;-141.84;71.20;17587.00;5072044;28;20237;-60
2022/05/02 02:45:01;;;;;;;10.07;6.07;;;8.70;99.90;;;-141.84;70.50;17625.59;5072309;28;20224;-60
2022/05/02 02:47:30;;;;;;;7.73;6.40;;;8.80;99.90;;;-141.84;69.55;17595.13;5072556;28;20304;-59
2022/05/02 02:49:58;;;;;;;7.93;6.77;;;8.80;99.90;;;-141.84;69.27;17635.75;5071574;28;20316;-60
2022/05/02 02:52:26;;;;;;;7.17;6.40;;;8.90;99.90;;;-141.84;70.42;17566.69;5071895;28;20228;-59
2022/05/02 02:54:54;;;;;;;8.47;6.83;;;8.90;99.90;;;-141.84;70.66;17576.84;5071765;28;20278;-59
2022/05/02 02:57:22;;;;;;;8.00;6.27;;;8.80;99.90;;;-141.84;70.18;17599.19;5071927;28;20258;-59
2022/05/02 02:59:51;;;;;;;8.43;6.77;;;8.80;99.90;;;-141.84;70.74;17570.75;5071992;28;20737;-60
2022/05/02 03:02:20;;;;;;;8.93;6.60;;;8.80;99.90;;;-141.84;70.97;17578.88;5075108;28;20227;-60
2022/05/02 03:07:34;;;;;;;7.27;6.27;;;8.70;99.90;;;-141.84;71.09;17556.53;5075612;28;20290;-60
2022/05/02 03:10:04;;;;;;;8.87;5.90;;;8.70;99.90;;;-141.84;71.52;17568.72;5071506;28;20574;-60
2022/05/02 03:12:32;;;;;;;8.10;6.70;;;8.60;99.90;;;-141.84;71.92;17564.66;5071786;28;20223;-60
2022/05/02 03:15:01;;;;;;;7.33;6.53;;;8.60;99.90;;;-141.84;72.25;17582.94;5071128;28;20684;-62
2022/05/02 03:17:29;;;;;;;7.17;6.10;;;8.60;99.90;;;-141.84;72.86;17538.25;5071902;28;20213;-61
2022/05/02 03:19:57;;;;;;;7.83;6.50;;;8.50;99.90;;;-141.84;73.68;17509.81;5068831;28;20233;-62
2022/05/02 03:22:25;;;;;;;9.03;7.03;;;8.40;99.90;;;-141.84;73.96;17497.63;5051396;28;20271;-61
2022/05/02 03:24:53;;;;;;;9.17;6.97;;;8.40;99.90;;;-141.84;74.63;17501.69;5051377;28;20642;-61
2022/05/02 03:27:21;;;;;;;7.97;6.77;;;8.30;99.90;;;-141.84;73.89;17465.13;5051413;28;20255;-60
2022/05/02 03:29:49;;;;;;;8.33;6.90;;;8.30;99.90;;;-141.84;73.13;17519.97;5051532;28;20201;-60
2022/05/02 03:32:18;;;;;;;9.50;6.63;;;8.40;99.90;;;-141.84;73.63;17532.16;5051088;28;20317;-60
2022/05/02 03:34:46;;;;;;;7.60;6.37;;;8.40;99.90;;;-141.84;74.05;17489.50;5051117;28;20229;-60
2022/05/02 03:37:15;;;;;;;7.87;6.67;;;8.30;99.90;;;-141.84;74.64;17507.78;5051079;28;20291;-61
2022/05/02 03:39:43;;;;;;;7.30;6.53;;;8.30;99.90;;;-141.84;75.38;17475.28;5050754;28;20235;-61
2022/05/02 03:42:11;;;;;;;8.63;6.70;;;8.30;99.90;;;-141.84;74.46;17513.88;5051118;28;20369;-61
2022/05/02 03:44:39;;;;;;;8.23;6.40;;;8.30;99.90;;;-141.84;74.37;17507.78;5051157;28;20197;-60
2022/05/02 03:47:07;;;;;;;7.57;6.37;;;8.20;99.90;;;-141.84;74.52;17485.44;5050411;28;20675;-60
2022/05/02 03:49:37;;;;;;;7.73;6.70;;;8.20;99.90;;;-141.84;74.67;17465.13;5050555;28;20720;-61
2022/05/02 03:52:06;;;;;;;8.30;6.63;;;8.20;99.90;;;-141.84;74.98;17493.56;5050779;28;20256;-62
2022/05/02 03:54:34;;;;;;;7.40;6.60;;;8.30;99.90;;;-141.84;75.36;17452.97;5050330;28;20599;-61
2022/05/02 03:57:02;;;;;;;10.47;6.90;;;8.20;99.90;;;-141.84;74.56;17481.38;5051105;28;20197;-60
2022/05/02 03:59:30;;;;;;;10.43;7.07;;;8.20;99.90;;;-141.84;74.37;17465.13;5051263;28;20201;-61
2022/05/02 04:01:58;;;;;;;7.17;6.47;;;8.30;99.90;;;-141.84;73.45;17503.72;5052050;28;20355;-61
2022/05/02 04:04:26;;;;;;;8.53;6.53;;;8.40;99.90;;;-141.84;74.03;17507.78;5090500;28;20277;-60
2022/05/02 04:06:56;;;;;;;8.87;6.87;;;8.50;99.90;;;-141.84;74.45;17489.50;5079719;28;20229;-60
2022/05/02 04:09:24;;;;;;;8.53;6.87;;;8.40;99.90;;;-141.84;74.68;17507.78;5070249;28;20351;-60
2022/05/02 04:11:52;;;;;;;9.93;6.90;;;8.40;99.90;;;-141.84;74.09;17491.53;5071115;28;20232;-61
2022/05/02 04:14:20;;;;;;;7.53;6.70;;;8.40;99.90;;;-141.84;73.63;17489.50;5070290;28;20234;-61
2022/05/02 04:16:49;;;;;;;7.60;6.80;;;8.50;99.90;;;-141.84;73.58;17507.78;5069949;28;20244;-60
2022/05/02 04:19:19;;;;;;;8.53;6.70;;;8.50;99.90;;;-141.84;72.75;17519.97;5050177;28;20236;-61
2022/05/02 04:21:47;;;;;;;9.70;6.90;;;8.60;99.90;;;-141.84;72.15;17493.56;5050413;28;20436;-62
2022/05/02 04:24:16;;;;;;;8.00;6.40;;;8.70;99.90;;;-141.84;72.01;17532.16;5049781;28;20242;-60
2022/05/02 04:26:44;;;;;;;10.30;7.07;;;8.80;99.90;;;-141.84;71.69;17528.09;5050328;28;20661;-61
2022/05/02 04:29:12;;;;;;;8.10;6.90;;;8.80;99.90;;;-141.84;71.57;17522.00;5049932;28;20225;-60
2022/05/02 04:31:40;;;;;;;8.00;7.20;;;8.90;99.90;;;-141.84;70.64;17530.13;5049447;28;20224;-60
2022/05/02 04:34:08;;;;;;;7.37;6.63;;;9.00;99.90;;;-141.84;70.80;17542.31;5049841;28;20284;-60
2022/05/02 04:36:36;;;;;;;7.60;6.80;;;9.10;99.90;;;-141.84;70.57;17540.28;5049682;28;20320;-62
2022/05/02 04:39:04;;;;;;;7.33;6.43;;;9.20;99.90;;;-141.84;70.05;17530.13;5049995;28;20233;-60
2022/05/02 04:41:33;;;;;;;8.70;6.70;;;9.10;99.90;;;-141.84;69.49;17582.94;5050054;28;20327;-60
2022/05/02 04:44:01;;;;;;;7.13;6.30;;;9.20;99.90;;;-141.84;69.46;17574.81;5049764;28;20343;-59
2022/05/02 04:46:29;;;;;;;8.80;6.80;;;9.30;99.90;;;-141.84;69.15;17556.53;5048821;28;20240;-60
2022/05/02 04:48:57;;;;;;;7.60;6.70;;;9.30;99.90;;;-141.84;69.55;17554.50;5049525;28;20229;-59
2022/05/02 04:51:25;;;;;;;7.63;6.83;;;9.30;99.90;;;-141.84;68.60;17544.34;5063907;28;20224;-60
2022/05/02 04:53:53;;;;;;;9.47;6.67;;;9.40;99.90;;;-141.84;68.15;17566.69;5070339;28;20200;-59
2022/05/02 04:56:21;;;;;;;6.67;6.07;;;9.60;99.90;;;-141.84;66.74;17611.38;5069879;28;20281;-60
2022/05/02 04:58:51;;;;;;;8.40;6.77;;;9.70;99.90;;;-141.84;63.17;17662.16;5069299;28;20224;-60
2022/05/02 05:01:19;;;;;;;7.13;6.37;;;10.10;99.90;;;-141.84;61.84;17723.09;5069042;28;20228;-59
2022/05/02 05:03:47;;;;;;;7.10;6.40;;;10.50;99.90;;;-141.84;59.31;17794.19;5085810;28;20442;-60
2022/05/02 05:06:15;;;;;;;8.90;6.70;;;10.90;99.90;;;-141.84;57.36;17800.28;5084020;28;20235;-61
2022/05/02 05:08:44;;;;;;;7.13;6.23;;;11.30;99.90;;;-141.84;56.23;17865.28;5069621;28;20207;-60
2022/05/02 05:11:34;;;;;;;9.17;6.10;;;11.70;99.90;;;-141.84;54.95;17909.97;5069112;28;20224;-59
2022/05/02 05:17:20;;;;;;;7.93;6.27;;;11.90;99.90;;;-141.84;56.49;17859.19;5027917;28;20231;-59
2022/05/02 05:20:09;;;;;;;7.33;6.33;;;11.90;99.90;;;-141.84;57.43;17840.91;5050261;28;20302;-60
2022/05/02 05:23:11;;;;;;;7.73;6.47;;;11.80;99.90;;;-141.84;58.06;17822.63;5052790;28;20504;-60
2022/05/02 05:25:51;;;;;;;7.17;6.10;;;11.80;99.90;;;-141.84;57.56;17824.66;5042883;28;20346;-60
2022/05/02 05:28:51;;;;;;;7.67;6.20;;;11.80;99.90;;;-141.84;57.95;17857.16;5050323;28;20236;-60
2022/05/02 05:31:32;;;;;;;6.87;6.17;;;11.90;99.90;;;-141.84;57.79;17844.97;5044660;28;20629;-60
2022/05/02 05:34:09;;;;;;;9.00;6.73;;;11.90;99.90;;;-141.84;56.86;17855.13;5049951;28;20240;-60
2022/05/02 05:37:12;;;;;;;8.37;6.93;;;12.00;99.90;;;-141.84;56.88;17879.50;5050018;28;20266;-60
2022/05/02 05:39:54;;;;;;;7.63;6.10;;;12.00;99.90;;;-141.84;57.21;17859.19;5049932;28;20312;-62
2022/05/02 05:42:35;;;;;;;8.20;6.50;;;12.20;99.90;;;-141.84;57.00;17863.25;5050430;28;20232;-61
2022/05/02 05:45:11;;;;;;;7.57;6.57;;;12.30;99.90;;;-141.84;56.22;17875.44;5049660;28;20297;-59
2022/05/02 05:47:58;;;;;;;6.50;5.67;;;12.40;99.90;;;-141.84;56.13;17859.19;5050313;28;20192;-60
2022/05/02 05:50:32;;;;;;;7.03;6.37;;;12.50;99.90;;;-141.84;55.64;17873.41;5056509;28;20263;-60
2022/05/02 05:53:14;;;;;;;7.63;6.30;;;12.60;99.90;;;-141.84;55.24;17928.28;5069554;28;20307;-59
2022/05/02 05:56:02;;;;;;;7.00;6.30;;;12.70;99.90;;;-141.84;54.08;17916.06;5069678;28;20254;-60
2022/05/02 05:58:47;;;;;;;8.10;6.47;;;12.90;99.90;;;-141.84;53.27;17944.53;5072129;28;20320;-60
2022/05/02 06:01:26;;;;;;;8.57;6.30;;;13.00;99.90;;;-141.84;52.44;17960.78;5073331;28;20311;-60
2022/05/02 06:04:04;;;;;;;7.33;6.10;;;13.00;99.90;;;-141.84;53.34;17940.47;5090675;28;20234;-61
2022/05/02 06:06:33;;;;;;;8.83;6.30;;;12.90;99.90;;;-141.84;52.87;17936.41;5085725;28;20307;-60
2022/05/02 06:09:02;;;;;;;7.03;6.20;;;12.90;99.90;;;-141.84;53.73;17966.88;5073385;28;20193;-60
2022/05/02 06:11:33;;;;;;;8.23;6.10;;;13.10;99.90;;;-141.84;53.50;17930.31;5055956;28;20612;-60
2022/05/02 06:14:03;;;;;;;8.57;6.40;;;13.20;99.90;;;-141.84;52.77;17989.22;5053277;28;20232;-60
2022/05/02 06:19:28;;;;;;;10.93;6.87;;;13.10;99.90;;;-141.84;52.90;17977.03;5053320;28;20280;-60
2022/05/02 06:21:58;;;;;;;10.33;7.30;;;13.10;99.90;;;-141.84;51.69;18003.44;5053028;28;20302;-60
2022/05/02 06:24:31;;;;;;;7.50;6.67;;;13.20;99.90;;;-141.84;51.72;18021.72;5052904;28;20619;-60
2022/05/02 06:27:02;;;;;;;8.63;6.57;;;13.30;99.90;;;-141.84;52.12;17979.06;5053186;28;20612;-60
2022/05/02 06:29:33;;;;;;;8.00;6.43;;;13.40;99.90;;;-141.84;51.37;18023.75;5053514;28;20276;-60
2022/05/02 06:32:10;;;;;;;9.33;6.90;;;13.30;99.90;;;-141.84;51.17;18009.53;5052905;28;20309;-60
2022/05/02 06:34:41;;;;;;;8.23;6.60;;;13.50;99.90;;;-141.84;51.23;18031.88;5053129;28;20940;-61
2022/05/02 06:37:35;;;;;;;7.93;6.00;;;13.30;99.90;;;-141.84;51.53;18013.59;5052742;28;20233;-61
2022/05/02 06:40:18;;;;;;;12.17;6.23;;;13.50;99.90;;;-141.84;50.75;18042.03;5052900;28;20229;-60
2022/05/02 06:43:00;;;;;;;10.23;6.70;;;13.60;99.90;;;-141.84;50.52;18052.19;5052829;28;20720;-60
2022/05/02 06:45:44;;;;;;;7.10;6.30;;;13.60;99.90;;;-141.84;50.33;18086.72;5052862;28;20225;-60
2022/05/02 06:48:29;;;;;;;10.00;6.03;;;13.60;99.90;;;-141.84;50.16;18056.25;5052805;28;20194;-60
2022/05/02 06:51:06;;;;;;;10.13;6.50;;;13.70;99.90;;;-141.84;50.04;18009.53;5052816;28;20201;-60
2022/05/02 06:54:05;;;;;;;7.87;6.03;;;13.70;99.90;;;-141.84;50.57;18046.09;5053238;28;20209;-61
2022/05/02 06:56:44;;;;;;;11.40;5.97;;;13.80;99.90;;;-141.84;50.98;18044.06;5052862;28;20300;-59
2022/05/02 06:59:32;;;;;;;9.23;6.40;;;13.90;99.90;;;-141.84;50.10;18068.44;5052093;28;20669;-62
2022/05/02 07:02:24;;;;;;;6.63;5.93;;;13.90;99.90;;;-141.84;49.48;18082.66;5054540;28;20308;-59
2022/05/02 07:04:54;;;;;;;6.93;6.23;;;13.90;99.90;;;-141.84;49.58;18090.78;5092709;28;20232;-59
2022/05/02 07:07:44;;;;;;;8.97;6.30;;;14.00;99.90;;;-141.84;49.29;18070.47;5063330;28;20308;-59
2022/05/02 07:10:18;;;;;;;6.60;5.80;;;13.90;99.90;;;-141.84;48.88;18109.06;5052184;28;20312;-61
2022/05/02 07:13:02;;;;;;;9.33;6.20;;;13.90;99.90;;;-141.84;49.60;18082.66;5052411;28;20228;-61
2022/05/02 07:15:44;;;;;;;9.63;6.63;;;13.90;99.90;;;-141.84;49.87;18064.38;5051929;28;20241;-61
2022/05/02 07:18:34;;;;;;;7.60;6.70;;;13.90;99.90;;;-141.84;49.76;18098.91;5051653;28;20188;-61
2022/05/02 07:21:32;;;;;;;7.00;6.30;;;13.90;99.90;;;-141.84;49.34;18064.38;5051456;28;20756;-60
2022/05/02 07:24:35;;;;;;;6.53;5.77;;;13.90;99.90;;;-141.84;49.96;18078.59;5051522;28;20296;-60
2022/05/02 07:27:21;;;;;;;8.90;6.57;;;13.90;99.90;;;-141.84;49.98;18094.84;5051829;28;20190;-61
2022/05/02 07:29:52;;;;;;;8.07;6.40;;;14.00;99.90;;;-141.84;49.94;18088.75;5052254;28;20193;-60
2022/05/02 07:32:25;;;;;;;7.00;6.30;;;14.10;99.90;;;-141.84;49.06;18082.66;5051287;28;20245;-59
2022/05/02 07:34:55;;;;;;;8.57;6.53;;;14.20;99.90;;;-141.84;49.11;18100.94;5051269;28;20932;-60
2022/05/02 07:37:24;;;;;;;7.85;6.15;;;14.20;99.90;;;-141.84;49.14;18102.97;5051637;28;20229;-62
2022/05/02 07:39:56;;;;;;;7.90;6.57;;;14.30;99.90;;;-141.84;48.00;18172.03;5051019;28;20233;-63
2022/05/02 07:42:27;;;;;;;11.37;6.50;;;14.30;99.90;;;-141.84;48.38;18107.03;5051424;28;20711;-60
2022/05/02 07:44:56;;;;;;;7.63;6.27;;;14.30;99.90;;;-141.84;48.27;18123.28;5050939;28;20754;-60
2022/05/02 07:47:31;;;;;;;9.30;6.40;;;14.30;99.90;;;-141.84;47.93;18180.16;5052097;28;20216;-60
2022/05/02 07:49:59;;;;;;;7.03;6.32;;;14.40;99.90;;;-141.84;48.10;18127.34;5050963;28;20323;-60
2022/05/02 07:52:29;;;;;;;9.57;6.17;;;14.40;99.90;;;-141.84;47.88;18139.53;5051119;28;20351;-60
2022/05/02 07:55:01;;;;;;;6.97;5.75;;;14.40;99.90;;;-141.84;48.17;18151.72;5051004;28;20317;-60
2022/05/02 07:57:37;;;;;;;6.87;6.17;;;14.40;99.90;;;-141.84;48.22;18127.34;5051140;28;20308;-60
2022/05/02 08:00:08;;;;;;;9.57;6.57;;;14.50;99.90;;;-141.84;47.69;18172.03;5051033;28;20259;-60
2022/05/02 08:02:37;;;;;;;7.60;6.40;;;14.70;99.90;;;-141.84;48.10;18161.88;5051215;28;20205;-61
2022/05/02 08:05:07;;;;;;;8.55;6.97;;;14.70;99.90;;;-141.84;48.00;18147.66;5050804;28;20255;-61
2022/05/02 08:07:38;;;;;;;9.95;7.20;;;14.60;99.90;;;-141.84;47.81;18163.91;5066989;28;20232;-60
2022/05/02 08:10:36;;;;;;;7.13;6.50;;;14.70;99.90;;;-141.84;47.48;18163.91;5063872;28;20234;-61
2022/05/02 08:13:24;;;;;;;8.30;6.65;;;14.70;99.90;;;-141.84;46.88;18192.34;5050657;28;20259;-61
2022/05/02 08:16:02;;;;;;;7.43;6.20;;;15.00;99.90;;;-141.84;47.59;18192.34;5050816;28;20356;-63
2022/05/02 08:19:02;;;;;;;6.93;6.23;;;15.00;99.90;;;-141.84;47.59;18182.19;5050225;28;20667;-63
2022/05/02 08:21:38;;;;;;;7.25;5.97;;;15.00;99.90;;;-141.84;47.24;18200.47;5050074;28;20307;-61
2022/05/02 08:27:47;;;;;;;7.07;6.40;;;15.50;99.90;;;-141.84;46.08;18261.44;5050676;28;20332;-59
2022/05/02 08:30:22;;;;;;;9.60;7.13;;;15.40;99.90;;;-141.84;46.60;18206.56;5050365;28;20236;-61
2022/05/02 08:33:02;;;;;;;7.95;7.07;;;15.50;99.90;;;-141.84;46.69;18218.75;5050882;28;20188;-61
2022/05/02 08:35:49;;;;;;;7.93;6.57;;;15.60;99.90;;;-141.84;46.16;18243.16;5049889;28;20288;-61
2022/05/02 08:38:42;;;;;;;8.50;6.47;;;15.60;99.90;;;-141.84;46.54;18216.72;5050302;28;20541;-60
2022/05/02 08:42:11;;;;;;;9.05;6.70;;;15.70;99.90;;;-141.84;45.83;18265.50;5049981;28;20633;-60
2022/05/02 08:45:30;;;;;;;8.88;6.20;;;15.60;99.90;;;-141.84;46.39;18257.38;5029450;28;20255;-60
2022/05/02 08:52:40;;;;;;;7.22;6.50;;;15.70;99.90;;;-141.84;45.79;18293.94;5050278;28;20239;-60
2022/05/02 08:55:39;;;;;;;6.93;6.20;;;15.80;99.90;;;-141.84;45.43;18332.53;5049680;28;20733;-61
2022/05/02 08:59:04;;;;;;;7.53;6.20;;;15.90;99.90;;;-141.84;44.93;18310.19;5049806;28;20233;-60
2022/05/02 09:02:30;;;;;;;9.75;6.55;;;15.90;99.90;;;-141.84;45.28;18289.88;5049618;28;20229;-61
2022/05/02 09:05:45;;;;;;;7.22;6.50;;;16.00;99.90;;;-141.84;43.71;18302.06;5049765;28;20222;-60
2022/05/02 09:09:03;;;;;;;7.45;6.30;;;16.00;99.90;;;-141.84;44.19;18322.38;4968388;28;20231;-60
2022/05/02 09:11:54;;;;;;;6.95;6.05;;;16.00;99.90;;;-141.84;45.09;18324.41;4967980;28;20708;-61
2022/05/02 09:15:00;;;;;;;9.35;5.97;;;16.10;99.90;;;-141.84;44.79;18338.63;5049638;28;20237;-61
2022/05/02 09:18:21;;;;;;;7.38;6.05;;;16.30;99.90;;;-141.84;42.94;18397.53;5049899;28;20625;-59
2022/05/02 09:20:59;;;;;;;6.40;5.32;;;16.40;99.90;;;-141.84;43.73;18358.94;5049651;28;20229;-61
2022/05/02 09:24:19;;;;;;;8.60;6.22;;;16.40;99.90;;;-141.84;43.78;18369.09;5049676;28;20664;-61
2022/05/02 09:27:12;;;;;;;8.40;6.40;;;16.40;99.90;;;-141.84;43.73;18365.03;5049682;28;20332;-62
2022/05/02 09:30:35;;;;;;;11.27;5.78;;;16.40;99.90;;;-141.84;44.38;18354.88;5049412;28;20358;-60
2022/05/02 09:33:28;;;;;;;8.98;5.65;;;16.50;99.90;;;-141.84;42.99;18428.03;5034068;28;20291;-60
2022/05/02 09:36:11;;;;;;;6.47;5.57;;;16.60;99.90;;;-141.84;42.94;18430.06;5043308;28;20664;-61
2022/05/02 09:38:51;;;;;;;11.18;5.93;;;16.60;99.90;;;-141.84;42.90;18407.69;5054175;28;20216;-61
2022/05/02 09:42:01;;;;;;;7.03;5.75;;;16.60;99.90;;;-141.84;42.95;18442.25;5053264;28;20628;-60
2022/05/02 09:52:05;;;;;;;6.40;5.80;;;16.90;99.90;;;-141.84;41.48;18464.59;5053300;28;20228;-61
2022/05/02 09:58:00;;;;;;;6.57;5.97;;;16.80;99.90;;;-141.84;41.30;18488.97;5053271;28;20304;-61
2022/05/02 10:04:11;;;;;;;7.28;6.15;;;16.90;99.90;;;-141.84;42.06;18458.50;5010373;28;20238;-61
2022/05/02 10:06:47;;;;;;;8.18;6.15;;;17.00;99.90;;;-141.84;42.11;18468.66;5059005;28;20290;-61
2022/05/02 10:09:37;;;;;;;7.53;6.43;;;17.10;99.90;;;-141.84;42.33;18436.16;5072825;28;20605;-60
2022/05/02 10:12:18;;;;;;;10.23;6.35;;;17.00;99.90;;;-141.84;41.96;18491.00;5072560;28;20221;-61
2022/05/02 10:15:16;;;;;;;8.55;5.50;;;17.10;99.90;;;-141.84;42.19;18478.81;5073149;28;20212;-60
2022/05/02 10:18:29;;;;;;;6.85;6.13;;;17.20;99.90;;;-141.84;40.96;18501.16;5072910;28;20291;-63
2022/05/02 10:21:08;;;;;;;7.72;5.53;;;17.30;99.90;;;-141.84;41.63;18515.38;5059763;28;20670;-62
2022/05/02 10:23:55;;;;;;;9.13;5.82;;;17.30;99.90;;;-141.84;40.69;18553.97;5053090;28;20185;-61
2022/05/02 10:26:32;;;;;;;8.95;6.28;;;17.30;99.90;;;-141.84;40.22;18517.41;5052024;28;20662;-61
2022/05/02 10:29:38;;;;;;;10.15;7.07;;;17.40;99.90;;;-141.84;41.15;18519.44;5052560;28;20641;-60
2022/05/02 10:32:21;;;;;;;7.07;6.20;;;17.20;99.90;;;-141.84;40.50;18519.44;5050636;28;20804;-61
2022/05/02 10:34:53;;;;;;;8.35;6.20;;;17.30;99.90;;;-141.84;39.84;18558.03;5052595;28;20232;-59
2022/05/02 10:37:35;;;;;;;6.40;5.53;;;17.40;99.90;;;-141.84;40.29;18558.03;5052316;28;20231;-60
2022/05/02 10:40:08;;;;;;;8.80;6.47;;;17.50;99.90;;;-141.84;40.05;18580.41;5052348;28;20228;-61
2022/05/02 10:42:37;;;;;;;6.93;6.15;;;17.60;99.90;;;-141.84;40.62;18537.72;5052339;28;20319;-60
2022/05/02 10:45:09;;;;;;;6.40;5.50;;;17.60;99.90;;;-141.84;40.23;18596.66;5051882;28;20287;-60
2022/05/02 10:47:44;;;;;;;6.35;5.72;;;17.60;99.90;;;-141.84;39.68;18619.00;5052598;28;20212;-60
2022/05/02 10:50:21;;;;;;;8.93;5.75;;;17.80;99.90;;;-141.84;39.39;18606.81;5052345;28;20450;-61
2022/05/02 10:53:14;;;;;;;7.10;6.35;;;17.70;99.90;;;-141.84;39.53;18612.91;5052118;28;20235;-60
2022/05/02 10:56:08;;;;;;;8.43;6.25;;;17.80;99.90;;;-141.84;39.66;18610.88;5051960;28;20308;-60
2022/05/02 10:58:36;;;;;;;7.18;5.45;;;17.60;99.90;;;-141.84;39.29;18616.97;5052349;28;20225;-61
2022/05/02 11:01:18;;;;;;;6.65;5.40;;;17.70;99.90;;;-141.84;39.25;18665.72;5052095;28;20312;-60
2022/05/02 11:04:08;;;;;;;9.07;5.75;;;17.80;99.90;;;-141.84;38.63;18667.75;5083911;28;20325;-60
2022/05/02 11:06:53;;;;;;;6.93;6.13;;;18.00;99.90;;;-141.84;38.90;18659.63;5083425;28;20233;-60
2022/05/02 11:09:33;;;;;;;7.65;5.30;;;18.00;99.90;;;-141.84;38.63;18651.50;5071669;28;20220;-61
2022/05/02 11:12:03;;;;;;;6.80;5.63;;;18.00;99.90;;;-141.84;38.83;18647.44;5071635;28;20368;-61
2022/05/02 11:14:51;;;;;;;7.50;5.75;;;17.90;99.90;;;-141.84;38.21;18681.97;5072070;28;20279;-60
2022/05/02 11:17:30;;;;;;;6.68;5.88;;;18.00;99.90;;;-141.84;38.44;18675.88;5071704;28;20280;-60
2022/05/02 11:23:36;;;;;;;8.73;5.80;;;18.10;99.90;;;-141.84;38.10;18677.91;4989324;28;20235;-61